createdAt,value
2018-01-28T00:00:40.700Z,6.13
2018-01-28T00:01:40.349Z,6.16
2018-01-28T00:02:38.904Z,6.16
2018-01-28T00:03:38.732Z,6.15
2018-01-28T00:04:39.401Z,6.16
2018-01-28T00:05:39.049Z,6.13
2018-01-28T00:06:40.538Z,6.11
2018-01-28T00:07:40.078Z,6.13
2018-01-28T00:08:39.148Z,6.13
2018-01-28T00:09:39.035Z,6.15
2018-01-28T00:10:39.619Z,6.12
2018-01-28T00:11:39.516Z,6.13
2018-01-28T00:12:40.518Z,6.09
2018-01-28T00:13:38.978Z,6.11
2018-01-28T00:14:39.149Z,6.08
2018-01-28T00:15:38.922Z,6.09
2018-01-28T00:16:38.804Z,6.06
2018-01-28T00:17:38.940Z,6.08
2018-01-28T00:18:39.169Z,6.09
2018-01-28T00:19:39.555Z,6.05
2018-01-28T00:20:39.038Z,6.08
2018-01-28T00:21:39.580Z,6.08
2018-01-28T00:22:39.131Z,6.09
2018-01-28T00:23:39.035Z,6.06
2018-01-28T00:24:39.201Z,6.05
2018-01-28T00:25:39.114Z,6.04
2018-01-28T00:26:39.309Z,6.01
2018-01-28T00:27:39.189Z,6.01
2018-01-28T00:28:38.755Z,6.01
2018-01-28T00:29:38.806Z,6.02
2018-01-28T00:30:38.813Z,6.01
2018-01-28T00:31:38.808Z,6.02
2018-01-28T00:32:38.879Z,6.01
2018-01-28T00:33:38.819Z,6
2018-01-28T00:34:38.918Z,6.02
2018-01-28T00:35:38.950Z,5.98
2018-01-28T00:36:38.855Z,5.98
2018-01-28T00:37:38.835Z,6
2018-01-28T00:38:38.742Z,6.01
2018-01-28T00:39:38.794Z,6.01
2018-01-28T00:40:38.745Z,6.01
2018-01-28T00:41:38.818Z,6
2018-01-28T00:42:38.804Z,6.01
2018-01-28T00:43:38.800Z,6
2018-01-28T00:44:38.918Z,5.98
2018-01-28T00:45:38.898Z,5.98
2018-01-28T00:46:38.833Z,5.95
2018-01-28T00:47:38.889Z,5.95
2018-01-28T00:48:40.321Z,5.95
2018-01-28T00:49:38.816Z,5.92
2018-01-28T00:50:38.936Z,5.92
2018-01-28T00:51:38.914Z,5.92
2018-01-28T00:52:38.964Z,5.91
2018-01-28T00:53:38.931Z,5.91
2018-01-28T00:54:38.902Z,5.91
2018-01-28T00:55:38.901Z,5.9
2018-01-28T00:56:38.877Z,5.9
2018-01-28T00:57:38.723Z,5.88
2018-01-28T00:58:38.752Z,5.91
2018-01-28T00:59:38.882Z,5.91
2018-01-28T01:00:38.864Z,5.91
2018-01-28T01:01:38.945Z,5.94
2018-01-28T01:02:39.012Z,5.94
2018-01-28T01:03:38.801Z,5.91
2018-01-28T01:04:38.897Z,5.95
2018-01-28T01:05:38.906Z,5.97
2018-01-28T01:06:38.837Z,5.95
2018-01-28T01:07:38.875Z,5.94
2018-01-28T01:08:38.822Z,5.95
2018-01-28T01:09:38.938Z,5.95
2018-01-28T01:10:39.016Z,5.92
2018-01-28T01:11:40.313Z,5.95
2018-01-28T01:12:39.472Z,5.98
2018-01-28T01:13:41.398Z,5.95
2018-01-28T01:14:39.828Z,5.95
2018-01-28T01:15:41.312Z,5.95
2018-01-28T01:16:39.190Z,5.95
2018-01-28T01:17:39.456Z,5.98
2018-01-28T01:18:38.813Z,6
2018-01-28T01:19:39.304Z,6
2018-01-28T01:20:39.746Z,6.04
2018-01-28T01:21:39.977Z,6.05
2018-01-28T01:22:39.129Z,6.05
2018-01-28T01:23:38.995Z,6.08
2018-01-28T01:24:39.061Z,6.09
2018-01-28T01:25:39.018Z,6.15
2018-01-28T01:26:40.269Z,6.13
2018-01-28T01:27:39.182Z,6.16
2018-01-28T01:28:38.964Z,6.15
2018-01-28T01:29:38.766Z,6.19
2018-01-28T01:30:38.947Z,6.18
2018-01-28T01:31:40.660Z,6.19
2018-01-28T01:32:40.898Z,6.23
2018-01-28T01:33:39.306Z,6.23
2018-01-28T01:34:38.924Z,6.25
2018-01-28T01:35:39.545Z,6.28
2018-01-28T01:36:39.888Z,6.28
2018-01-28T01:37:38.980Z,6.28
2018-01-28T01:38:39.756Z,6.28
2018-01-28T01:39:39.071Z,6.26
2018-01-28T01:40:38.981Z,6.26
2018-01-28T01:41:39.032Z,6.28
2018-01-28T01:42:39.009Z,6.28
2018-01-28T01:43:39.020Z,6.29
2018-01-28T01:44:38.991Z,6.28
2018-01-28T01:45:39.192Z,6.28
2018-01-28T01:46:39.155Z,6.29
2018-01-28T01:47:39.543Z,6.29
2018-01-28T01:48:39.061Z,6.3
2018-01-28T01:49:39.039Z,6.29
2018-01-28T01:50:39.197Z,6.32
2018-01-28T01:51:38.988Z,6.33
2018-01-28T01:52:39.195Z,6.35
2018-01-28T01:53:39.833Z,6.36
2018-01-28T01:54:39.687Z,6.36
2018-01-28T01:55:40.335Z,6.36
2018-01-28T01:56:39.727Z,6.39
2018-01-28T01:57:38.987Z,6.36
2018-01-28T01:58:38.806Z,6.37
2018-01-28T01:59:39.141Z,6.37
2018-01-28T02:00:39.195Z,6.39
2018-01-28T02:01:39.757Z,6.39
2018-01-28T02:02:39.209Z,6.39
2018-01-28T02:03:38.924Z,6.4
2018-01-28T02:04:39.184Z,6.4
2018-01-28T02:05:40.428Z,6.41
2018-01-28T02:06:40.203Z,6.43
2018-01-28T02:07:39.391Z,6.43
2018-01-28T02:08:39.068Z,6.47
2018-01-28T02:09:38.953Z,6.43
2018-01-28T02:10:40.232Z,6.46
2018-01-28T02:11:39.216Z,6.47
2018-01-28T02:12:38.953Z,6.44
2018-01-28T02:13:39.254Z,6.48
2018-01-28T02:14:39.919Z,6.5
2018-01-28T02:15:39.967Z,6.54
2018-01-28T02:16:38.977Z,6.54
2018-01-28T02:17:39.149Z,6.51
2018-01-28T02:18:39.271Z,6.53
2018-01-28T02:19:40.497Z,6.56
2018-01-28T02:20:40.469Z,6.54
2018-01-28T02:21:39.014Z,6.56
2018-01-28T02:22:39.778Z,6.54
2018-01-28T02:23:39.517Z,6.58
2018-01-28T02:24:40.940Z,6.56
2018-01-28T02:25:39.688Z,6.57
2018-01-28T02:26:39.605Z,6.58
2018-01-28T02:27:39.891Z,6.61
2018-01-28T02:28:39.197Z,6.65
2018-01-28T02:29:39.122Z,6.67
2018-01-28T02:30:39.669Z,6.65
2018-01-28T02:31:39.219Z,6.67
2018-01-28T02:32:38.964Z,6.65
2018-01-28T02:33:39.015Z,6.67
2018-01-28T02:34:39.058Z,6.68
2018-01-28T02:35:38.865Z,6.71
2018-01-28T02:36:39.868Z,6.67
2018-01-28T02:37:40.928Z,6.65
2018-01-28T02:38:39.007Z,6.68
2018-01-28T02:39:39.820Z,6.7
2018-01-28T02:40:39.235Z,6.7
2018-01-28T02:41:39.438Z,6.7
2018-01-28T02:42:38.940Z,6.7
2018-01-28T02:43:40.519Z,6.71
2018-01-28T02:44:40.229Z,6.7
2018-01-28T02:45:39.082Z,6.7
2018-01-28T02:46:40.466Z,6.71
2018-01-28T02:47:40.608Z,6.67
2018-01-28T02:48:39.448Z,6.71
2018-01-28T02:49:39.230Z,6.73
2018-01-28T02:50:41.331Z,6.7
2018-01-28T02:51:39.543Z,6.7
2018-01-28T02:52:39.532Z,6.71
2018-01-28T02:53:40.943Z,6.7
2018-01-28T02:54:39.415Z,6.68
2018-01-28T02:55:39.510Z,6.7
2018-01-28T02:56:39.849Z,6.68
2018-01-28T02:57:41.318Z,6.71
2018-01-28T02:58:40.212Z,6.7
2018-01-28T02:59:39.657Z,6.67
2018-01-28T03:00:39.303Z,6.7
2018-01-28T03:01:39.821Z,6.7
2018-01-28T03:02:41.570Z,6.71
2018-01-28T03:03:42.225Z,6.71
2018-01-28T03:04:39.426Z,6.74
2018-01-28T03:05:40.047Z,6.7
2018-01-28T03:06:39.550Z,6.74
2018-01-28T03:07:39.566Z,6.74
2018-01-28T03:08:39.660Z,6.75
2018-01-28T03:09:39.388Z,6.75
2018-01-28T03:10:39.845Z,6.74
2018-01-28T03:11:40.094Z,6.75
2018-01-28T03:12:40.124Z,6.75
2018-01-28T03:13:39.491Z,6.75
2018-01-28T03:14:40.441Z,6.74
2018-01-28T03:15:39.223Z,6.73
2018-01-28T03:16:39.281Z,6.73
2018-01-28T03:17:39.208Z,6.74
2018-01-28T03:18:39.542Z,6.73
2018-01-28T03:19:39.242Z,6.74
2018-01-28T03:20:39.900Z,6.71
2018-01-28T03:21:39.368Z,6.71
2018-01-28T03:22:39.355Z,6.71
2018-01-28T03:23:39.485Z,6.7
2018-01-28T03:24:39.960Z,6.71
2018-01-28T03:25:40.645Z,6.71
2018-01-28T03:26:40.885Z,6.7
2018-01-28T03:27:39.606Z,6.73
2018-01-28T03:28:40.377Z,6.68
2018-01-28T03:29:41.883Z,6.71
2018-01-28T03:30:39.293Z,6.7
2018-01-28T03:31:39.952Z,6.67
2018-01-28T03:32:39.424Z,6.67
2018-01-28T03:33:39.511Z,6.67
2018-01-28T03:34:39.663Z,6.67
2018-01-28T03:35:41.002Z,6.67
2018-01-28T03:36:39.569Z,6.65
2018-01-28T03:37:39.664Z,6.67
2018-01-28T03:38:39.752Z,6.67
2018-01-28T03:39:40.372Z,6.67
2018-01-28T03:40:39.490Z,6.67
2018-01-28T03:41:40.336Z,6.65
2018-01-28T03:42:39.639Z,6.65
2018-01-28T03:43:39.784Z,6.65
2018-01-28T03:44:41.270Z,6.63
2018-01-28T03:45:39.502Z,6.65
2018-01-28T03:46:39.410Z,6.64
2018-01-28T03:47:39.394Z,6.65
2018-01-28T03:48:39.526Z,6.68
2018-01-28T03:49:39.781Z,6.65
2018-01-28T03:50:39.536Z,6.64
2018-01-28T03:51:41.136Z,6.64
2018-01-28T03:52:47.761Z,6.65
2018-01-28T03:53:40.272Z,6.64
2018-01-28T03:54:40.699Z,6.65
2018-01-28T03:55:39.624Z,6.67
2018-01-28T03:56:40.692Z,6.65
2018-01-28T03:57:40.197Z,6.64
2018-01-28T03:58:39.957Z,6.65
2018-01-28T03:59:40.302Z,6.64
2018-01-28T04:00:39.859Z,6.64
2018-01-28T04:01:40.025Z,6.61
2018-01-28T04:02:39.615Z,6.63
2018-01-28T04:03:39.780Z,6.61
2018-01-28T04:04:39.721Z,6.63
2018-01-28T04:05:40.392Z,6.61
2018-01-28T04:06:39.612Z,6.6
2018-01-28T04:07:39.687Z,6.64
2018-01-28T04:08:40.029Z,6.63
2018-01-28T04:09:39.791Z,6.6
2018-01-28T04:10:39.856Z,6.6
2018-01-28T04:11:39.740Z,6.61
2018-01-28T04:12:40.232Z,6.61
2018-01-28T04:13:39.604Z,6.6
2018-01-28T04:14:39.501Z,6.6
2018-01-28T04:15:39.696Z,6.61
2018-01-28T04:16:39.823Z,6.6
2018-01-28T04:17:40.815Z,6.61
2018-01-28T04:18:39.513Z,6.63
2018-01-28T04:19:41.301Z,6.61
2018-01-28T04:20:39.561Z,6.6
2018-01-28T04:21:39.750Z,6.61
2018-01-28T04:22:39.721Z,6.61
2018-01-28T04:23:40.019Z,6.63
2018-01-28T04:24:39.680Z,6.63
2018-01-28T04:25:39.444Z,6.64
2018-01-28T04:26:39.672Z,6.63
2018-01-28T04:27:39.497Z,6.65
2018-01-28T04:28:39.536Z,6.64
2018-01-28T04:29:39.910Z,6.64
2018-01-28T04:30:41.910Z,6.67
2018-01-28T04:31:39.852Z,6.65
2018-01-28T04:32:39.686Z,6.68
2018-01-28T04:33:39.679Z,6.68
2018-01-28T04:34:39.734Z,6.67
2018-01-28T04:35:39.835Z,6.67
2018-01-28T04:36:39.979Z,6.65
2018-01-28T04:37:39.690Z,6.7
2018-01-28T04:38:39.492Z,6.67
2018-01-28T04:39:40.035Z,6.7
2018-01-28T04:40:39.655Z,6.71
2018-01-28T04:41:39.501Z,6.73
2018-01-28T04:42:39.968Z,6.74
2018-01-28T04:43:39.875Z,6.74
2018-01-28T04:44:39.725Z,6.75
2018-01-28T04:45:40.063Z,6.75
2018-01-28T04:46:40.775Z,6.74
2018-01-28T04:47:39.434Z,6.75
2018-01-28T04:48:40.485Z,6.75
2018-01-28T04:49:39.559Z,6.74
2018-01-28T04:50:39.668Z,6.75
2018-01-28T04:51:41.115Z,6.78
2018-01-28T04:52:39.841Z,6.78
2018-01-28T04:53:40.166Z,6.81
2018-01-28T04:54:39.551Z,6.81
2018-01-28T04:55:40.950Z,6.83
2018-01-28T04:56:40.241Z,6.81
2018-01-28T04:57:39.593Z,6.81
2018-01-28T04:58:39.726Z,6.81
2018-01-28T04:59:39.708Z,6.83
2018-01-28T05:00:40.204Z,6.83
2018-01-28T05:01:40.972Z,6.81
2018-01-28T05:02:39.463Z,6.84
2018-01-28T05:03:39.887Z,6.83
2018-01-28T05:04:39.855Z,6.85
2018-01-28T05:05:39.770Z,6.9
2018-01-28T05:06:39.865Z,6.88
2018-01-28T05:07:39.807Z,6.85
2018-01-28T05:08:39.790Z,6.87
2018-01-28T05:09:39.906Z,6.85
2018-01-28T05:10:40.014Z,6.87
2018-01-28T05:11:39.752Z,6.85
2018-01-28T05:12:39.625Z,6.88
2018-01-28T05:13:39.565Z,6.87
2018-01-28T05:14:39.628Z,6.87
2018-01-28T05:15:39.635Z,6.88
2018-01-28T05:16:39.516Z,6.91
2018-01-28T05:17:39.785Z,6.92
2018-01-28T05:18:39.510Z,6.91
2018-01-28T05:19:40.416Z,6.92
2018-01-28T05:20:39.559Z,6.9
2018-01-28T05:21:39.530Z,6.87
2018-01-28T05:22:39.787Z,6.88
2018-01-28T05:23:39.620Z,6.91
2018-01-28T05:24:39.766Z,6.9
2018-01-28T05:25:39.652Z,6.91
2018-01-28T05:26:39.906Z,6.91
2018-01-28T05:27:40.188Z,6.91
2018-01-28T05:28:39.643Z,6.92
2018-01-28T05:29:40.304Z,6.95
2018-01-28T05:30:39.583Z,6.94
2018-01-28T05:31:40.420Z,6.94
2018-01-28T05:32:39.597Z,6.91
2018-01-28T05:33:39.802Z,6.92
2018-01-28T05:34:39.603Z,6.94
2018-01-28T05:35:40.156Z,6.91
2018-01-28T05:36:39.700Z,6.94
2018-01-28T05:37:39.682Z,6.95
2018-01-28T05:38:39.740Z,6.99
2018-01-28T05:39:39.700Z,6.96
2018-01-28T05:40:39.422Z,6.98
2018-01-28T05:41:39.668Z,6.95
2018-01-28T05:42:40.611Z,6.96
2018-01-28T05:43:39.453Z,7.01
2018-01-28T05:44:39.950Z,7.05
2018-01-28T05:45:40.589Z,7.08
2018-01-28T05:46:40.259Z,7.06
2018-01-28T05:47:39.691Z,7.05
2018-01-28T05:48:39.889Z,7.06
2018-01-28T05:49:39.618Z,7.08
2018-01-28T05:50:39.459Z,7.08
2018-01-28T05:51:39.752Z,7.09
2018-01-28T05:52:39.664Z,7.08
2018-01-28T05:53:39.662Z,7.06
2018-01-28T05:54:39.921Z,7.11
2018-01-28T05:55:40.001Z,7.11
2018-01-28T05:56:39.706Z,7.09
2018-01-28T05:57:39.763Z,7.08
2018-01-28T05:58:39.561Z,7.06
2018-01-28T05:59:39.914Z,7.09
2018-01-28T06:00:40.121Z,7.08
2018-01-28T06:01:39.839Z,7.11
2018-01-28T06:02:39.875Z,7.09
2018-01-28T06:03:39.767Z,7.08
2018-01-28T06:04:40.285Z,7.09
2018-01-28T06:05:39.725Z,7.08
2018-01-28T06:06:39.823Z,7.11
2018-01-28T06:07:39.723Z,7.11
2018-01-28T06:08:39.619Z,7.11
2018-01-28T06:09:39.677Z,7.13
2018-01-28T06:10:40.848Z,7.13
2018-01-28T06:11:39.648Z,7.12
2018-01-28T06:12:39.724Z,7.12
2018-01-28T06:13:40.611Z,7.13
2018-01-28T06:14:39.662Z,7.16
2018-01-28T06:15:39.696Z,7.16
2018-01-28T06:16:42.034Z,7.15
2018-01-28T06:17:40.771Z,7.16
2018-01-28T06:18:40.669Z,7.16
2018-01-28T06:19:39.810Z,7.22
2018-01-28T06:20:39.521Z,7.22
2018-01-28T06:21:40.603Z,7.2
2018-01-28T06:22:40.563Z,7.19
2018-01-28T06:23:39.663Z,7.2
2018-01-28T06:24:39.915Z,7.2
2018-01-28T06:25:39.369Z,7.19
2018-01-28T06:26:39.604Z,7.2
2018-01-28T06:27:39.340Z,7.2
2018-01-28T06:28:39.579Z,7.19
2018-01-28T06:29:39.184Z,7.22
2018-01-28T06:30:39.460Z,7.22
2018-01-28T06:31:38.660Z,7.19
2018-01-28T06:32:39.474Z,7.19
2018-01-28T06:33:40.061Z,7.2
2018-01-28T06:34:39.423Z,7.18
2018-01-28T06:35:39.576Z,7.19
2018-01-28T06:36:39.173Z,7.18
2018-01-28T06:37:39.847Z,7.2
2018-01-28T06:38:39.188Z,7.2
2018-01-28T06:39:39.514Z,7.18
2018-01-28T06:40:39.107Z,7.18
2018-01-28T06:41:39.532Z,7.2
2018-01-28T06:42:39.829Z,7.18
2018-01-28T06:43:39.066Z,7.19
2018-01-28T06:44:39.945Z,7.18
2018-01-28T06:45:39.158Z,7.16
2018-01-28T06:46:39.731Z,7.16
2018-01-28T06:47:39.111Z,7.16
2018-01-28T06:48:39.768Z,7.12
2018-01-28T06:49:39.387Z,7.13
2018-01-28T06:50:40.013Z,7.11
2018-01-28T06:51:39.265Z,7.12
2018-01-28T06:52:38.863Z,7.12
2018-01-28T06:53:39.430Z,7.11
2018-01-28T06:54:40.013Z,7.11
2018-01-28T06:55:39.414Z,7.09
2018-01-28T06:56:39.566Z,7.11
2018-01-28T06:57:40.126Z,7.09
2018-01-28T06:58:39.206Z,7.11
2018-01-28T06:59:39.522Z,7.12
2018-01-28T07:00:40.021Z,7.08
2018-01-28T07:01:39.791Z,7.12
2018-01-28T07:02:39.274Z,7.13
2018-01-28T07:03:39.495Z,7.12
2018-01-28T07:04:39.865Z,7.09
2018-01-28T07:05:39.411Z,7.11
2018-01-28T07:06:39.973Z,7.09
2018-01-28T07:07:39.326Z,7.11
2018-01-28T07:08:40.020Z,7.09
2018-01-28T07:09:39.812Z,7.08
2018-01-28T07:10:40.075Z,7.11
2018-01-28T07:11:39.672Z,7.08
2018-01-28T07:12:39.960Z,7.09
2018-01-28T07:13:39.333Z,7.09
2018-01-28T07:14:39.858Z,7.12
2018-01-28T07:15:39.264Z,7.11
2018-01-28T07:16:39.541Z,7.12
2018-01-28T07:17:39.950Z,7.09
2018-01-28T07:18:40.268Z,7.08
2018-01-28T07:19:40.037Z,7.09
2018-01-28T07:20:39.245Z,7.09
2018-01-28T07:21:39.655Z,7.08
2018-01-28T07:22:38.795Z,7.08
2018-01-28T07:23:39.625Z,7.12
2018-01-28T07:24:39.431Z,7.12
2018-01-28T07:25:39.842Z,7.12
2018-01-28T07:26:39.381Z,7.13
2018-01-28T07:27:39.856Z,7.12
2018-01-28T07:28:40.323Z,7.13
2018-01-28T07:29:39.729Z,7.11
2018-01-28T07:30:39.994Z,7.09
2018-01-28T07:31:39.272Z,7.15
2018-01-28T07:32:40.119Z,7.12
2018-01-28T07:33:39.566Z,7.13
2018-01-28T07:34:39.881Z,7.13
2018-01-28T07:35:39.414Z,7.12
2018-01-28T07:36:39.845Z,7.09
2018-01-28T07:37:40.128Z,7.11
2018-01-28T07:38:39.374Z,7.09
2018-01-28T07:39:39.772Z,7.12
2018-01-28T07:40:39.258Z,7.11
2018-01-28T07:41:39.755Z,7.12
2018-01-28T07:42:39.985Z,7.09
2018-01-28T07:43:39.339Z,7.11
2018-01-28T07:44:40.023Z,7.09
2018-01-28T07:45:39.283Z,7.11
2018-01-28T07:46:39.802Z,7.09
2018-01-28T07:47:38.824Z,7.11
2018-01-28T07:48:39.681Z,7.09
2018-01-28T07:49:39.500Z,7.11
2018-01-28T07:50:39.517Z,7.09
2018-01-28T07:51:39.138Z,7.06
2018-01-28T07:52:38.755Z,7.03
2018-01-28T07:53:39.505Z,7.05
2018-01-28T07:54:40.213Z,7.05
2018-01-28T07:55:39.370Z,7.03
2018-01-28T07:56:39.974Z,7.03
2018-01-28T07:57:39.211Z,7.03
2018-01-28T07:58:39.697Z,6.99
2018-01-28T07:59:39.237Z,6.98
2018-01-28T08:00:39.827Z,6.98
2018-01-28T08:01:39.705Z,6.98
2018-01-28T08:02:39.749Z,6.98
2018-01-28T08:03:39.984Z,6.98
2018-01-28T08:04:39.684Z,6.98
2018-01-28T08:05:39.458Z,6.98
2018-01-28T08:06:40.275Z,6.99
2018-01-28T08:07:39.374Z,6.98
2018-01-28T08:08:39.845Z,6.99
2018-01-28T08:09:39.342Z,6.99
2018-01-28T08:10:39.722Z,6.98
2018-01-28T08:11:40.412Z,7.01
2018-01-28T08:12:38.676Z,7.01
2018-01-28T08:13:39.859Z,6.99
2018-01-28T08:14:39.558Z,7.03
2018-01-28T08:15:39.858Z,7.02
2018-01-28T08:16:38.779Z,7.03
2018-01-28T08:17:39.885Z,7.02
2018-01-28T08:18:39.266Z,7.02
2018-01-28T08:19:39.649Z,7.03
2018-01-28T08:20:39.731Z,7.05
2018-01-28T08:21:39.272Z,7.03
2018-01-28T08:22:38.996Z,7.05
2018-01-28T08:23:39.266Z,7.05
2018-01-28T08:24:38.989Z,7.02
2018-01-28T08:25:39.032Z,7.06
2018-01-28T08:26:39.100Z,7.05
2018-01-28T08:27:39.077Z,7.05
2018-01-28T08:28:39.417Z,7.05
2018-01-28T08:29:39.134Z,7.06
2018-01-28T08:30:39.056Z,7.06
2018-01-28T08:31:39.208Z,7.06
2018-01-28T08:32:39.168Z,7.06
2018-01-28T08:33:39.247Z,7.05
2018-01-28T08:34:39.068Z,7.08
2018-01-28T08:35:39.453Z,7.05
2018-01-28T08:36:39.206Z,7.05
2018-01-28T08:37:39.829Z,7.09
2018-01-28T08:38:39.061Z,7.08
2018-01-28T08:39:39.090Z,7.11
2018-01-28T08:40:39.212Z,7.09
2018-01-28T08:41:39.602Z,7.09
2018-01-28T08:42:39.083Z,7.13
2018-01-28T08:43:38.952Z,7.09
2018-01-28T08:44:39.171Z,7.09
2018-01-28T08:45:39.214Z,7.12
2018-01-28T08:46:39.132Z,7.13
2018-01-28T08:47:39.056Z,7.13
2018-01-28T08:48:39.017Z,7.11
2018-01-28T08:49:40.374Z,7.12
2018-01-28T08:50:38.974Z,7.15
2018-01-28T08:51:38.952Z,7.13
2018-01-28T08:52:40.088Z,7.15
2018-01-28T08:53:39.346Z,7.15
2018-01-28T08:54:39.127Z,7.15
2018-01-28T08:55:39.078Z,7.13
2018-01-28T08:56:39.768Z,7.15
2018-01-28T08:57:39.137Z,7.18
2018-01-28T08:58:39.246Z,7.15
2018-01-28T08:59:39.224Z,7.16
2018-01-28T09:00:39.772Z,7.18
2018-01-28T09:01:39.153Z,7.18
2018-01-28T09:02:39.137Z,7.18
2018-01-28T09:03:38.961Z,7.19
2018-01-28T09:04:38.966Z,7.18
2018-01-28T09:05:40.055Z,7.19
2018-01-28T09:06:39.202Z,7.18
2018-01-28T09:07:39.064Z,7.22
2018-01-28T09:08:39.022Z,7.22
2018-01-28T09:09:39.120Z,7.19
2018-01-28T09:10:39.981Z,7.2
2018-01-28T09:11:39.233Z,7.22
2018-01-28T09:12:39.090Z,7.22
2018-01-28T09:13:39.176Z,7.22
2018-01-28T09:14:39.076Z,7.26
2018-01-28T09:15:39.260Z,7.24
2018-01-28T09:16:39.186Z,7.27
2018-01-28T09:17:39.118Z,7.26
2018-01-28T09:18:39.206Z,7.27
2018-01-28T09:19:39.292Z,7.26
2018-01-28T09:20:38.958Z,7.27
2018-01-28T09:22:58.881Z,7.24
2018-01-28T09:23:39.466Z,7.26
2018-01-28T09:24:39.108Z,7.26
2018-01-28T09:25:39.780Z,7.27
2018-01-28T09:26:39.431Z,7.26
2018-01-28T09:27:39.799Z,7.29
2018-01-28T09:28:39.637Z,7.27
2018-01-28T09:29:39.514Z,7.29
2018-01-28T09:30:39.729Z,7.29
2018-01-28T09:31:39.972Z,7.31
2018-01-28T09:32:39.557Z,7.27
2018-01-28T09:33:39.849Z,7.3
2018-01-28T09:34:39.402Z,7.29
2018-01-28T09:35:40.289Z,7.29
2018-01-28T09:36:40.009Z,7.29
2018-01-28T09:37:39.415Z,7.29
2018-01-28T09:38:40.024Z,7.29
2018-01-28T09:39:39.380Z,7.29
2018-01-28T09:40:39.694Z,7.3
2018-01-28T09:41:39.993Z,7.27
2018-01-28T09:42:39.297Z,7.26
2018-01-28T09:43:39.776Z,7.29
2018-01-28T09:44:40.206Z,7.29
2018-01-28T09:45:39.748Z,7.29
2018-01-28T09:46:40.023Z,7.27
2018-01-28T09:47:39.349Z,7.29
2018-01-28T09:48:39.740Z,7.27
2018-01-28T09:49:39.531Z,7.29
2018-01-28T09:50:39.834Z,7.27
2018-01-28T09:51:39.687Z,7.26
2018-01-28T09:52:39.524Z,7.26
2018-01-28T09:53:39.836Z,7.27
2018-01-28T09:54:39.538Z,7.24
2018-01-28T09:55:39.982Z,7.27
2018-01-28T09:56:40.062Z,7.24
2018-01-28T09:57:39.498Z,7.27
2018-01-28T09:58:40.096Z,7.26
2018-01-28T09:59:39.411Z,7.26
2018-01-28T10:00:39.843Z,7.26
2018-01-28T10:01:39.440Z,7.26
2018-01-28T10:02:39.763Z,7.27
2018-01-28T10:03:39.313Z,7.26
2018-01-28T10:04:39.918Z,7.29
2018-01-28T10:05:39.402Z,7.31
2018-01-28T10:06:39.766Z,7.27
2018-01-28T10:07:40.374Z,7.29
2018-01-28T10:08:39.581Z,7.31
2018-01-28T10:09:39.916Z,7.29
2018-01-28T10:10:40.178Z,7.29
2018-01-28T10:11:39.544Z,7.29
2018-01-28T10:12:39.369Z,7.31
2018-01-28T10:13:40.334Z,7.31
2018-01-28T10:14:39.620Z,7.29
2018-01-28T10:15:40.054Z,7.3
2018-01-28T10:16:39.683Z,7.31
2018-01-28T10:17:39.361Z,7.34
2018-01-28T10:18:40.300Z,7.3
2018-01-28T10:19:39.954Z,7.31
2018-01-28T10:20:39.285Z,7.33
2018-01-28T10:21:39.608Z,7.31
2018-01-28T10:22:39.540Z,7.31
2018-01-28T10:23:40.789Z,7.31
2018-01-28T10:24:40.170Z,7.31
2018-01-28T10:25:40.164Z,7.31
2018-01-28T10:26:40.121Z,7.31
2018-01-28T10:27:39.894Z,7.34
2018-01-28T10:28:39.788Z,7.33
2018-01-28T10:29:39.078Z,7.37
2018-01-28T10:30:38.838Z,7.39
2018-01-28T10:31:38.902Z,7.36
2018-01-28T10:32:39.091Z,7.36
2018-01-28T10:33:38.816Z,7.36
2018-01-28T10:34:39.064Z,7.34
2018-01-28T10:35:38.969Z,7.36
2018-01-28T10:36:38.960Z,7.39
2018-01-28T10:37:38.879Z,7.39
2018-01-28T10:38:39.020Z,7.39
2018-01-28T10:39:39.057Z,7.4
2018-01-28T10:40:39.065Z,7.4
2018-01-28T10:41:39.096Z,7.4
2018-01-28T10:42:38.900Z,7.4
2018-01-28T10:43:39.076Z,7.41
2018-01-28T10:44:39.144Z,7.41
2018-01-28T10:45:39.264Z,7.41
2018-01-28T10:46:39.098Z,7.41
2018-01-28T10:47:39.058Z,7.43
2018-01-28T10:48:39.113Z,7.43
2018-01-28T10:49:39.085Z,7.44
2018-01-28T10:50:38.905Z,7.43
2018-01-28T10:51:39.030Z,7.47
2018-01-28T10:52:39.129Z,7.46
2018-01-28T10:53:38.885Z,7.48
2018-01-28T10:54:39.150Z,7.5
2018-01-28T10:55:39.105Z,7.48
2018-01-28T10:56:39.111Z,7.48
2018-01-28T10:57:39.181Z,7.53
2018-01-28T10:58:45.240Z,7.5
2018-01-28T10:59:43.519Z,7.51
2018-01-28T11:00:40.206Z,7.51
2018-01-28T11:01:39.064Z,7.5
2018-01-28T11:02:40.453Z,7.51
2018-01-28T11:03:41.205Z,7.51
2018-01-28T11:04:41.442Z,7.5
2018-01-28T11:05:42.107Z,7.54
2018-01-28T11:06:41.992Z,7.53
2018-01-28T11:07:40.973Z,7.53
2018-01-28T11:08:42.732Z,7.57
2018-01-28T11:09:38.998Z,7.54
2018-01-28T11:10:41.841Z,7.57
2018-01-28T11:11:40.936Z,7.59
2018-01-28T11:12:39.435Z,7.57
2018-01-28T11:13:39.814Z,7.61
2018-01-28T11:14:41.902Z,7.59
2018-01-28T11:15:39.711Z,7.61
2018-01-28T11:16:40.577Z,7.62
2018-01-28T11:17:39.162Z,7.62
2018-01-28T11:18:39.068Z,7.64
2018-01-28T11:19:39.017Z,7.65
2018-01-28T11:20:39.185Z,7.65
2018-01-28T11:21:39.132Z,7.68
2018-01-28T11:22:39.036Z,7.68
2018-01-28T11:23:39.060Z,7.69
2018-01-28T11:24:39.530Z,7.71
2018-01-28T11:25:40.008Z,7.72
2018-01-28T11:26:39.507Z,7.74
2018-01-28T11:27:39.615Z,7.75
2018-01-28T11:28:39.456Z,7.77
2018-01-28T11:29:39.621Z,7.75
2018-01-28T11:30:39.673Z,7.75
2018-01-28T11:31:58.044Z,7.77
2018-01-28T11:32:49.749Z,7.77
2018-01-28T11:33:39.799Z,7.78
2018-01-28T11:34:39.516Z,7.81
2018-01-28T11:35:39.643Z,7.8
2018-01-28T11:36:39.818Z,7.81
2018-01-28T11:37:39.722Z,7.81
2018-01-28T11:38:39.475Z,7.81
2018-01-28T11:39:39.724Z,7.82
2018-01-28T11:40:39.641Z,7.84
2018-01-28T11:41:39.673Z,7.86
2018-01-28T11:42:39.733Z,7.88
2018-01-28T11:43:39.695Z,7.85
2018-01-28T11:44:39.755Z,7.86
2018-01-28T11:45:39.550Z,7.89
2018-01-28T11:46:39.647Z,7.88
2018-01-28T11:47:39.563Z,7.86
2018-01-28T11:48:39.617Z,7.86
2018-01-28T11:49:39.518Z,7.91
2018-01-28T11:50:39.574Z,7.86
2018-01-28T11:51:39.944Z,7.88
2018-01-28T11:52:39.483Z,7.91
2018-01-28T11:53:39.616Z,7.88
2018-01-28T11:54:39.814Z,7.89
2018-01-28T11:55:38.639Z,7.92
2018-01-28T11:56:38.793Z,7.91
2018-01-28T11:57:38.799Z,7.91
2018-01-28T11:58:38.649Z,7.91
2018-01-28T11:59:38.611Z,7.92
2018-01-28T12:00:38.666Z,7.89
2018-01-28T12:01:38.819Z,7.92
2018-01-28T12:02:38.688Z,7.91
2018-01-28T12:03:38.624Z,7.93
2018-01-28T12:04:38.846Z,7.93
2018-01-28T12:05:38.616Z,7.95
2018-01-28T12:06:38.653Z,7.95
2018-01-28T12:07:38.735Z,7.96
2018-01-28T12:08:38.742Z,7.93
2018-01-28T12:09:38.714Z,7.96
2018-01-28T12:10:38.811Z,7.95
2018-01-28T12:11:38.750Z,7.93
2018-01-28T12:12:38.940Z,7.93
2018-01-28T12:13:39.153Z,7.93
2018-01-28T12:14:39.127Z,7.95
2018-01-28T12:15:38.995Z,7.96
2018-01-28T12:16:38.853Z,7.96
2018-01-28T12:17:38.792Z,7.95
2018-01-28T12:18:39.029Z,7.96
2018-01-28T12:19:38.887Z,7.93
2018-01-28T12:20:39.502Z,7.95
2018-01-28T12:21:38.837Z,7.93
2018-01-28T12:22:38.838Z,7.93
2018-01-28T12:23:38.869Z,7.99
2018-01-28T12:24:39.719Z,7.98
2018-01-28T12:25:41.908Z,8.01
2018-01-28T12:26:39.553Z,7.98
2018-01-28T12:27:41.290Z,7.99
2018-01-28T12:28:39.948Z,7.98
2018-01-28T12:29:38.942Z,7.96
2018-01-28T12:30:39.275Z,7.99
2018-01-28T12:31:41.176Z,7.96
2018-01-28T12:32:39.005Z,7.96
2018-01-28T12:33:39.930Z,7.95
2018-01-28T12:34:42.552Z,7.96
2018-01-28T12:35:42.934Z,7.98
2018-01-28T12:36:39.325Z,7.95
2018-01-28T12:37:43.504Z,7.96
2018-01-28T12:38:38.793Z,7.95
2018-01-28T12:39:42.423Z,7.93
2018-01-28T12:40:38.806Z,7.96
2018-01-28T12:41:38.938Z,7.92
2018-01-28T12:42:38.680Z,7.95
2018-01-28T12:43:39.219Z,7.91
2018-01-28T12:44:38.639Z,7.91
2018-01-28T12:45:38.635Z,7.92
2018-01-28T12:46:38.691Z,7.89
2018-01-28T12:47:38.867Z,7.89
2018-01-28T12:48:38.804Z,7.91
2018-01-28T12:49:38.813Z,7.89
2018-01-28T12:50:38.848Z,7.86
2018-01-28T12:51:38.754Z,7.86
2018-01-28T12:52:38.699Z,7.86
2018-01-28T12:53:38.600Z,7.85
2018-01-28T12:54:41.977Z,7.85
2018-01-28T12:55:38.941Z,7.85
2018-01-28T12:56:38.552Z,7.86
2018-01-28T12:57:38.865Z,7.86
2018-01-28T12:58:38.788Z,7.84
2018-01-28T12:59:38.790Z,7.82
2018-01-28T13:00:38.762Z,7.84
2018-01-28T13:01:38.676Z,7.84
2018-01-28T13:02:38.918Z,7.84
2018-01-28T13:03:38.864Z,7.85
2018-01-28T13:04:38.750Z,7.84
2018-01-28T13:05:38.743Z,7.84
2018-01-28T13:06:38.599Z,7.82
2018-01-28T13:07:38.738Z,7.84
2018-01-28T13:08:38.852Z,7.85
2018-01-28T13:09:38.835Z,7.85
2018-01-28T13:10:38.630Z,7.82
2018-01-28T13:11:38.758Z,7.85
2018-01-28T13:12:38.620Z,7.85
2018-01-28T13:13:38.750Z,7.86
2018-01-28T13:14:38.826Z,7.85
2018-01-28T13:15:38.672Z,7.85
2018-01-28T13:16:38.772Z,7.85
2018-01-28T13:17:38.685Z,7.84
2018-01-28T13:18:38.784Z,7.84
2018-01-28T13:19:38.830Z,7.82
2018-01-28T13:20:38.778Z,7.85
2018-01-28T13:21:38.748Z,7.85
2018-01-28T13:22:38.708Z,7.86